createdAt,value
2023-01-10T01:31:59.696Z,6.7
2023-01-10T03:57:01.893Z,6.2
2023-01-10T05:50:59.762Z,5.8
2023-01-10T10:33:59.822Z,8.3
2023-01-10T11:17:59.831Z,8.3
2023-01-10T11:31:59.879Z,8.3
2023-01-10T12:17:59.894Z,9.1
2023-01-10T13:58:59.902Z,8.8
2023-01-10T14:16:59.872Z,8.6
2023-01-10T15:46:59.983Z,8.2
2023-01-10T16:04:59.971Z,8.1
2023-01-10T16:06:00.014Z,8
2023-01-10T16:06:59.900Z,8.1
2023-01-10T16:07:59.894Z,8.1
2023-01-10T16:08:59.895Z,8.1
2023-01-10T16:09:59.908Z,8.1
2023-01-10T16:10:59.922Z,8.1
2023-01-10T16:11:59.909Z,8
2023-01-10T16:12:59.911Z,8
2023-01-10T16:14:00.004Z,8
2023-01-10T16:14:59.911Z,7.9
2023-01-10T16:16:00.008Z,7.9
2023-01-10T16:16:59.885Z,8
2023-01-10T16:17:59.900Z,7.8
2023-01-10T16:19:02.569Z,7.9
2023-01-10T16:19:59.926Z,7.8
2023-01-10T16:20:59.896Z,7.8
2023-01-10T16:21:59.912Z,7.7
2023-01-10T16:22:59.903Z,7.6
2023-01-10T16:23:59.906Z,7.7
2023-01-10T16:24:59.916Z,7.7
2023-01-10T16:25:59.911Z,7.6
2023-01-10T16:26:59.907Z,7.6
2023-01-10T16:27:59.913Z,7.7
2023-01-10T16:28:59.895Z,7.6
2023-01-10T16:29:59.904Z,7.4
2023-01-10T16:30:59.917Z,7.5
2023-01-10T16:31:59.944Z,7.6
2023-01-10T16:32:59.922Z,7.5
2023-01-10T16:33:59.933Z,7.5
2023-01-10T16:34:59.920Z,7.5
2023-01-10T16:35:59.954Z,7.6
2023-01-10T16:36:59.913Z,7.6
2023-01-10T16:37:59.924Z,7.4
2023-01-10T16:38:59.922Z,7.5
2023-01-10T16:39:59.898Z,7.5
2023-01-10T16:41:00.067Z,7.5
2023-01-10T16:41:59.899Z,7.4
2023-01-10T16:42:59.906Z,7.4
2023-01-10T16:43:59.901Z,7.4
2023-01-10T16:44:59.895Z,7.4
2023-01-10T16:46:00.282Z,7.4
2023-01-10T16:46:59.914Z,7.3
2023-01-10T16:47:59.943Z,7.3
2023-01-10T16:48:59.921Z,7.3
2023-01-10T16:49:59.923Z,7.1
2023-01-10T16:50:59.913Z,7.2
2023-01-10T16:51:59.906Z,7.3
2023-01-10T16:52:59.901Z,7.3
2023-01-10T16:53:59.918Z,7.4
2023-01-10T16:54:59.915Z,7.2
2023-01-10T16:55:59.935Z,7.3
2023-01-10T16:56:59.911Z,7.3
2023-01-10T16:57:59.919Z,7.3
2023-01-10T16:58:59.983Z,7.3
2023-01-10T16:59:59.935Z,7.2
2023-01-10T17:01:00.016Z,7.2
2023-01-10T17:01:59.957Z,7.3
2023-01-10T17:02:59.919Z,7.2
2023-01-10T17:04:00.027Z,7.2
2023-01-10T17:04:59.918Z,7
2023-01-10T17:05:59.931Z,7.2
2023-01-10T17:06:59.958Z,7.2
2023-01-10T17:07:59.911Z,7.2
2023-01-10T17:08:59.908Z,7.1
2023-01-10T17:09:59.926Z,7.1
2023-01-10T17:11:00.094Z,7
2023-01-10T17:11:59.929Z,6.9
2023-01-10T17:12:59.928Z,7
2023-01-10T17:13:59.923Z,7
2023-01-10T17:14:59.956Z,7
2023-01-10T17:15:59.969Z,7.1
2023-01-10T17:16:59.941Z,7
2023-01-10T17:17:59.931Z,7.1
2023-01-10T17:18:59.942Z,7.2
2023-01-10T17:19:59.911Z,7.2
2023-01-10T17:20:59.921Z,7.2
2023-01-10T17:21:59.994Z,7
2023-01-10T17:22:59.928Z,7.1
2023-01-10T17:23:59.925Z,7
2023-01-10T17:24:59.918Z,7
2023-01-10T17:25:59.916Z,7
2023-01-10T17:26:59.937Z,7
2023-01-10T17:27:59.917Z,7
2023-01-10T17:28:59.914Z,7
2023-01-10T17:29:59.905Z,7
2023-01-10T17:30:59.923Z,7
2023-01-10T17:31:59.973Z,7
2023-01-10T17:32:59.907Z,6.9
2023-01-10T17:33:59.901Z,7
2023-01-10T17:34:59.942Z,7
2023-01-10T17:35:59.923Z,6.9
2023-01-10T17:36:59.914Z,6.9
2023-01-10T17:37:59.929Z,6.9
2023-01-10T17:38:59.920Z,6.9
2023-01-10T17:39:59.910Z,6.9
2023-01-10T17:40:59.904Z,6.9
2023-01-10T17:41:59.944Z,7
2023-01-10T17:42:59.944Z,6.9
2023-01-10T17:43:59.919Z,6.9
2023-01-10T17:44:59.915Z,7
2023-01-10T17:46:00.049Z,7
2023-01-10T17:46:59.939Z,6.9
2023-01-10T17:47:59.913Z,7
2023-01-10T17:48:59.909Z,6.9
2023-01-10T17:49:59.916Z,6.8
2023-01-10T17:50:59.930Z,7
2023-01-10T17:51:59.921Z,6.9
2023-01-10T17:52:59.921Z,7
2023-01-10T17:53:59.925Z,6.8
2023-01-10T17:54:59.944Z,6.8
2023-01-10T17:55:59.928Z,6.9
2023-01-10T17:56:59.945Z,6.8
2023-01-10T17:57:59.933Z,6.9
2023-01-10T17:58:59.925Z,6.8
2023-01-10T17:59:59.915Z,6.7
2023-01-10T18:01:00.029Z,6.8
2023-01-10T18:02:00.093Z,6.8
2023-01-10T18:03:00.136Z,6.9
2023-01-10T18:03:59.957Z,6.8
2023-01-10T18:04:59.925Z,6.9
2023-01-10T18:05:59.918Z,6.8
2023-01-10T18:06:59.921Z,6.9
2023-01-10T18:07:59.942Z,6.7
2023-01-10T18:08:59.965Z,6.7
2023-01-10T18:10:59.928Z,6.7
2023-01-10T18:11:59.943Z,6.8
2023-01-10T18:13:59.982Z,6.7
2023-01-10T18:14:59.961Z,6.8
2023-01-10T18:15:59.954Z,6.8
2023-01-10T18:16:59.994Z,6.8
2023-01-10T18:17:59.927Z,6.8
2023-01-10T18:18:59.938Z,6.8
2023-01-10T18:19:59.940Z,6.8
2023-01-10T18:20:59.935Z,6.8
2023-01-10T18:21:59.931Z,6.7
2023-01-10T18:22:59.957Z,6.7
2023-01-10T18:23:59.937Z,6.7
2023-01-10T18:24:59.928Z,6.8
2023-01-10T18:25:59.948Z,6.8
2023-01-10T18:26:59.948Z,6.8
2023-01-10T18:27:59.923Z,6.8
2023-01-10T18:28:59.917Z,6.7
2023-01-10T18:29:59.927Z,6.7
2023-01-10T18:30:59.996Z,6.8
2023-01-10T18:31:59.925Z,6.8
2023-01-10T18:32:59.923Z,6.8
2023-01-10T18:33:59.961Z,6.8
2023-01-10T18:34:59.942Z,6.8
2023-01-10T18:35:59.936Z,6.8
2023-01-10T18:36:59.930Z,6.8
2023-01-10T18:37:59.951Z,6.8
2023-01-10T18:38:59.936Z,6.8
2023-01-10T18:39:59.966Z,6.7
2023-01-10T18:40:59.949Z,6.7
2023-01-10T18:41:59.931Z,6.7
2023-01-10T18:42:59.955Z,6.7
2023-01-10T18:43:59.939Z,6.7
2023-01-10T18:44:59.932Z,6.7
2023-01-10T18:45:59.985Z,6.6
2023-01-10T18:46:59.937Z,6.6
2023-01-10T18:47:59.936Z,6.7
2023-01-10T18:48:59.943Z,6.7
2023-01-10T18:49:59.923Z,6.7
2023-01-10T18:50:59.947Z,6.7
2023-01-10T18:51:59.950Z,6.7
2023-01-10T18:52:59.926Z,6.6
2023-01-10T18:53:59.929Z,6.5
2023-01-10T18:55:02.280Z,6.6
2023-01-10T18:55:59.970Z,6.6
2023-01-10T18:56:59.944Z,6.6
2023-01-10T18:57:59.960Z,6.7
2023-01-10T18:58:59.954Z,6.5
2023-01-10T18:59:59.959Z,6.6
2023-01-10T19:01:00.038Z,6.6
2023-01-10T19:01:59.960Z,6.5
2023-01-10T19:02:59.946Z,6.5
2023-01-10T19:03:59.951Z,6.4
2023-01-10T19:04:59.950Z,6.5
2023-01-10T19:06:00.018Z,6.5
2023-01-10T19:06:59.932Z,6.5
2023-01-10T19:07:59.927Z,6.4
2023-01-10T19:08:59.928Z,6.5
2023-01-10T19:09:59.928Z,6.6
2023-01-10T19:11:12.967Z,6.6
2023-01-10T19:11:59.952Z,6.6
2023-01-10T19:12:59.931Z,6.5
2023-01-10T19:13:59.940Z,6.5
2023-01-10T19:14:59.950Z,6.6
2023-01-10T19:16:00.078Z,6.5
2023-01-10T19:16:59.940Z,6.6
2023-01-10T19:17:59.944Z,6.6
2023-01-10T19:18:59.949Z,6.6
2023-01-10T19:19:59.945Z,6.6
2023-01-10T19:20:59.940Z,6.5
2023-01-10T19:21:59.940Z,6.5
2023-01-10T19:22:59.934Z,6.5
2023-01-10T19:23:59.944Z,6.5
2023-01-10T19:25:59.947Z,6.5
2023-01-10T19:26:59.959Z,6.5
2023-01-10T19:27:59.935Z,6.6
2023-01-10T19:28:59.953Z,6.6
2023-01-10T19:29:59.962Z,6.6
2023-01-10T19:31:04.466Z,6.6
2023-01-10T19:32:00.044Z,6.7
2023-01-10T19:32:59.977Z,6.6
2023-01-10T19:33:59.965Z,6.7
2023-01-10T19:34:59.932Z,6.7
2023-01-10T19:35:59.943Z,6.7
2023-01-10T19:36:59.962Z,6.7
2023-01-10T19:37:59.934Z,6.7
2023-01-10T19:38:59.948Z,6.8
2023-01-10T19:39:59.945Z,6.8
2023-01-10T19:40:59.945Z,6.8
2023-01-10T19:41:59.969Z,6.9
2023-01-10T19:42:59.944Z,6.9
2023-01-10T19:43:59.936Z,6.8
2023-01-10T19:44:59.945Z,6.8
2023-01-10T19:46:00.029Z,6.8
2023-01-10T19:47:00.015Z,6.9
2023-01-10T19:47:59.953Z,6.8
2023-01-10T19:48:59.970Z,6.9
2023-01-10T19:49:59.973Z,6.9
2023-01-10T19:50:59.973Z,6.8
2023-01-10T19:51:59.946Z,6.9
2023-01-10T19:52:59.937Z,6.8
2023-01-10T19:53:59.974Z,6.8
2023-01-10T19:54:59.934Z,6.9
2023-01-10T19:55:59.945Z,6.9
2023-01-10T19:56:59.931Z,6.7
2023-01-10T19:57:59.951Z,6.8
2023-01-10T19:58:59.952Z,6.9
2023-01-10T19:59:59.945Z,6.9
2023-01-10T20:00:59.937Z,6.9
2023-01-10T20:02:00.081Z,6.9
2023-01-10T20:03:00.042Z,6.9
2023-01-10T20:03:59.962Z,6.9
2023-01-10T20:04:59.936Z,6.9
2023-01-10T20:05:59.948Z,6.9
2023-01-10T20:07:00.006Z,6.9
2023-01-10T20:07:59.950Z,6.9
2023-01-10T20:08:59.987Z,6.9
2023-01-10T20:09:59.955Z,6.9
2023-01-10T20:10:59.939Z,6.9
2023-01-10T20:11:59.977Z,6.9
2023-01-10T20:13:00.006Z,6.9
2023-01-10T20:13:59.952Z,6.9
2023-01-10T20:14:59.952Z,6.9
2023-01-10T20:15:59.997Z,6.9
2023-01-10T20:16:59.940Z,6.8
2023-01-10T20:17:59.952Z,6.8
2023-01-10T20:18:59.958Z,6.8
2023-01-10T20:19:59.972Z,6.8
2023-01-10T20:20:59.983Z,6.8
2023-01-10T20:21:59.967Z,6.9
2023-01-10T20:23:00.102Z,6.9
2023-01-10T20:23:59.949Z,6.9
2023-01-10T20:24:59.947Z,6.9
2023-01-10T20:26:00.014Z,6.8
2023-01-10T20:26:59.967Z,6.8
2023-01-10T20:27:59.963Z,6.7
2023-01-10T20:28:59.954Z,6.7
2023-01-10T20:29:59.968Z,6.7
2023-01-10T20:30:59.989Z,6.7
2023-01-10T20:31:59.951Z,6.8
2023-01-10T20:32:59.952Z,6.8
2023-01-10T20:33:59.948Z,6.8
2023-01-10T20:34:59.955Z,6.8
2023-01-10T20:35:59.974Z,6.9
2023-01-10T20:36:59.956Z,6.9
2023-01-10T20:38:00.001Z,6.8
2023-01-10T20:38:59.969Z,6.8
2023-01-10T20:39:59.951Z,6.8
2023-01-10T20:40:59.955Z,6.8
2023-01-10T20:41:59.972Z,6.8
2023-01-10T20:42:59.965Z,6.8
2023-01-10T20:43:59.977Z,6.8
2023-01-10T20:44:59.976Z,6.8
2023-01-10T20:45:59.952Z,6.7
2023-01-10T20:46:59.955Z,6.7
2023-01-10T20:47:59.971Z,6.7
2023-01-10T20:49:02.389Z,6.7
2023-01-10T20:49:59.958Z,6.8
2023-01-10T20:50:59.990Z,6.8
2023-01-10T20:51:59.954Z,6.8
2023-01-10T20:52:59.952Z,6.8
2023-01-10T20:53:59.960Z,6.8
2023-01-10T20:54:59.974Z,6.8
2023-01-10T20:56:00.427Z,6.8
2023-01-10T20:56:59.980Z,6.8
2023-01-10T20:57:59.963Z,6.9
2023-01-10T20:58:59.963Z,6.9
2023-01-10T20:59:59.961Z,6.9
2023-01-10T21:00:59.959Z,6.9
2023-01-10T21:02:59.986Z,6.9
2023-01-10T21:03:59.982Z,6.9
2023-01-10T21:04:59.961Z,6.8
2023-01-10T21:05:59.963Z,6.9
2023-01-10T21:06:59.988Z,7
2023-01-10T21:07:59.972Z,7
2023-01-10T21:08:59.982Z,7
2023-01-10T21:09:59.950Z,6.9
2023-01-10T21:10:59.958Z,6.9
2023-01-10T21:12:13.876Z,6.9
2023-01-10T21:13:00.012Z,6.9
2023-01-10T21:13:59.992Z,6.9
2023-01-10T21:14:59.986Z,6.9
2023-01-10T21:15:59.996Z,7
2023-01-10T21:16:59.979Z,6.9
2023-01-10T21:17:59.998Z,6.9
2023-01-10T21:19:59.991Z,7
2023-01-10T21:21:00.000Z,7
2023-01-10T21:21:59.972Z,7
2023-01-10T21:23:00.066Z,7
2023-01-10T21:23:59.952Z,7
2023-01-10T21:24:59.955Z,7
2023-01-10T21:25:59.956Z,7
2023-01-10T21:26:59.956Z,7
2023-01-10T21:27:59.979Z,7
2023-01-10T21:28:59.958Z,7
2023-01-10T21:29:59.965Z,7.1
2023-01-10T21:31:00.168Z,7.1
2023-01-10T21:31:59.980Z,7
2023-01-10T21:32:59.985Z,7
2023-01-10T21:33:59.967Z,7
2023-01-10T21:34:59.980Z,7
2023-01-10T21:35:59.962Z,7.1
2023-01-10T21:36:59.990Z,7.1
2023-01-10T21:37:59.975Z,7.2
2023-01-10T21:38:59.971Z,7.2
2023-01-10T21:39:59.979Z,7.2
2023-01-10T21:40:59.963Z,7.2
2023-01-10T21:41:59.963Z,7.2
2023-01-10T21:42:59.998Z,7.2
2023-01-10T21:43:59.961Z,7.3
2023-01-10T21:44:59.952Z,7.2
2023-01-10T21:45:59.994Z,7.3
2023-01-10T21:47:00.089Z,7.3
2023-01-10T21:47:59.988Z,7.2
2023-01-10T21:48:59.977Z,7.2
2023-01-10T21:49:59.983Z,7.3
2023-01-10T21:51:00.011Z,7.2
2023-01-10T21:51:59.961Z,7.2
2023-01-10T21:52:59.965Z,7.3
2023-01-10T21:53:59.998Z,7.3
2023-01-10T21:54:59.958Z,7.3
2023-01-10T21:56:00.181Z,7.3
2023-01-10T21:56:59.991Z,7.3
2023-01-10T21:58:00.009Z,7.3
2023-01-10T21:58:59.981Z,7.3
2023-01-10T21:59:59.981Z,7.2
2023-01-10T22:01:00.088Z,7.3
2023-01-10T22:01:59.985Z,7.3
2023-01-10T22:02:59.993Z,7.3
2023-01-10T22:04:00.043Z,7.3
2023-01-10T22:04:59.999Z,7.4
2023-01-10T22:05:59.973Z,7.4
2023-01-10T22:07:00.055Z,7.4
2023-01-10T22:07:59.981Z,7.4
2023-01-10T22:09:00.019Z,7.3
2023-01-10T22:09:59.986Z,7.4
2023-01-10T22:10:59.982Z,7.3
2023-01-10T22:11:59.989Z,7.3
2023-01-10T22:12:59.963Z,7.3
2023-01-10T22:13:59.965Z,7.3
2023-01-10T22:14:59.972Z,7.4
2023-01-10T22:16:00.052Z,7.4
2023-01-10T22:17:00.026Z,7.3
2023-01-10T22:17:59.983Z,7.3
2023-01-10T22:18:59.989Z,7.3
2023-01-10T22:19:59.991Z,7.3
2023-01-10T22:20:59.981Z,7.2
2023-01-10T22:21:59.975Z,7.2
2023-01-10T22:22:59.971Z,7.2
2023-01-10T22:23:59.968Z,7.2
2023-01-10T22:24:59.972Z,7.2
2023-01-10T22:26:59.968Z,7.2
2023-01-10T22:28:00.005Z,7.2
2023-01-10T22:28:59.978Z,7.1
2023-01-10T22:29:59.973Z,7.2
2023-01-10T22:30:59.991Z,7.2
2023-01-10T22:31:59.988Z,7.2
2023-01-10T22:32:59.973Z,7.2
2023-01-10T22:33:59.968Z,7.2
2023-01-10T22:34:59.979Z,7.3
2023-01-10T22:35:59.973Z,7.3
2023-01-10T22:36:59.967Z,7.2
2023-01-10T22:37:59.983Z,7.3
2023-01-10T22:38:59.997Z,7.3
2023-01-10T22:39:59.998Z,7.3
2023-01-10T22:40:59.978Z,7.2
2023-01-10T22:41:59.993Z,7.2
2023-01-10T22:43:00.000Z,7.3
2023-01-10T22:43:59.977Z,7.3
2023-01-10T22:44:59.968Z,7.3
2023-01-10T22:46:00.137Z,7.3
2023-01-10T22:47:00.010Z,7.3
2023-01-10T22:48:00.004Z,7.3
2023-01-10T22:48:59.993Z,7.3
2023-01-10T22:49:59.970Z,7.3
2023-01-10T22:50:59.963Z,7.2
2023-01-10T22:51:59.981Z,7.2
2023-01-10T22:53:00.027Z,7.2
2023-01-10T22:53:59.996Z,7.2
2023-01-10T22:54:59.972Z,7.3
2023-01-10T22:55:59.993Z,7.3
2023-01-10T22:56:59.987Z,7.3
2023-01-10T22:58:00.007Z,7.3
2023-01-10T22:58:59.980Z,7.3
2023-01-10T22:59:59.977Z,7.3
2023-01-10T23:00:59.978Z,7.3
2023-01-10T23:02:00.075Z,7.3
2023-01-10T23:02:59.993Z,7.3
2023-01-10T23:04:00.049Z,7.3
2023-01-10T23:05:00.004Z,7.4
2023-01-10T23:05:59.980Z,7.3
2023-01-10T23:07:00.105Z,7.4
2023-01-10T23:07:59.981Z,7.4
2023-01-10T23:08:59.982Z,7.4
2023-01-10T23:09:59.999Z,7.4
2023-01-10T23:10:59.999Z,7.4
2023-01-10T23:11:59.996Z,7.5
2023-01-10T23:13:00.007Z,7.4
2023-01-10T23:14:00.007Z,7.4
2023-01-10T23:15:00.012Z,7.4
2023-01-10T23:15:59.984Z,7.4
2023-01-10T23:16:59.976Z,7.5
2023-01-10T23:17:59.991Z,7.5
2023-01-10T23:19:00.038Z,7.5
2023-01-10T23:19:59.976Z,7.5
2023-01-10T23:21:00.012Z,7.5
2023-01-10T23:21:59.989Z,7.5
2023-01-10T23:22:59.977Z,7.5
2023-01-10T23:23:59.979Z,7.5
2023-01-10T23:24:59.982Z,7.6
2023-01-10T23:25:59.981Z,7.6
2023-01-10T23:26:59.986Z,7.5
2023-01-10T23:27:59.989Z,7.5
2023-01-10T23:28:59.991Z,7.6
2023-01-10T23:29:59.991Z,7.6
2023-01-10T23:31:00.004Z,7.6
2023-01-10T23:32:00.021Z,7.6
2023-01-10T23:32:59.982Z,7.6
2023-01-10T23:33:59.987Z,7.6
2023-01-10T23:35:00.006Z,7.6
2023-01-10T23:36:00.003Z,7.6
2023-01-10T23:36:59.976Z,7.7
2023-01-10T23:38:00.018Z,7.7
2023-01-10T23:38:59.995Z,7.8
2023-01-10T23:39:59.974Z,7.6
2023-01-10T23:40:59.997Z,7.7
2023-01-10T23:41:59.980Z,7.7
2023-01-10T23:42:59.991Z,7.7
2023-01-10T23:44:00.022Z,7.7
2023-01-10T23:45:00.002Z,7.7
2023-01-10T23:46:00.001Z,7.8
2023-01-10T23:46:59.987Z,7.7
2023-01-10T23:48:00.030Z,7.8
2023-01-10T23:48:59.981Z,7.8
2023-01-10T23:50:00.019Z,7.8
2023-01-10T23:50:59.982Z,7.9
2023-01-10T23:51:59.990Z,7.8
2023-01-10T23:52:59.997Z,7.8
2023-01-10T23:54:00.010Z,7.9
2023-01-10T23:55:00.009Z,7.9
2023-01-10T23:56:00.013Z,7.9
2023-01-10T23:57:00.005Z,7.9
2023-01-10T23:57:59.994Z,7.9
2023-01-10T23:59:00.018Z,7.8
